Southland, Texas
Current Conditions -  °F | °C
As of 7:19 AM on Wednesday 22 Oct 2014 (Local Time) from KLBB Reporting Station
Light Rain Light Rain  
Wind Chill: 60°   Ceiling: 3700
Heat Index: 60°   Visibility: 3mi
Dew Point: 58°   Wind: 3mph
Humidity: 93%   Direction: 160°SSE
Pressure: 30.11"   Gusts: NA
Location:  33.4457°N, 101.67°W
Report Text: KLBB 221219Z 16003KT 3SM -RA BR BKN037 OVC046 16/14 A3011 RMK AO2 P0006 T01560144
Loading
Personal Weather Stations






























Interactive Weather Map
Tropical Storm Tracking
New forecast layout! Learn more

10-Day Weather Forecast

Advertisements
Track Severe Weather on mobile